Oriental Acacia — ZGBL2 — position and weather

sailwx.info

Track history (hours):
 
Tides and Currents Weather Stations Pressure Air Temp Water Temp Dewpoint Dewpoint Depression Visibility Wind Speed Wind Dir Waves Ship Positions

Oriental Acacia

Last reported at 2018-Feb-21 10:51 UTC. Time now 2018-Feb-23 10:56 UTC.
Position N 40°43' E 029°19'.

Length 124 m; draft 7.6 m.

Type: Ship (hazmat cat B). MMSI: 319014800.

Date/timePositionNaut miles runAvg speedWind from/ knotsBaromVisibWave heightAir tempDewpointWater temp
2018-Feb-21 10:51N 40°43' E 029°19'412.4
2018-Feb-21 10:30N 40°43' E 029°13'713.0
2018-Feb-21 10:00N 40°43' E 029°05'  
2018-Feb-18 17:25N 36°21' E 014°44'613.9
2018-Feb-18 17:00N 36°23' E 014°37'714.0
2018-Feb-18 16:30N 36°25' E 014°29'714.0
2018-Feb-18 16:00N 36°27' E 014°21'713.7
2018-Feb-18 15:30N 36°30' E 014°13'713.6
2018-Feb-18 14:58N 36°32' E 014°04'  
2018-Feb-15 20:00N 35°60' W 005°11'714.6
2018-Feb-15 19:30N 35°58' W 005°20'815.1
2018-Feb-15 19:00N 35°57' W 005°29'250 6.8
2018-Feb-14 06:16N 38°01' W 010°01'413.8
2018-Feb-14 06:00N 38°05' W 010°02'3514.0
2018-Feb-14 03:31N 38°39' W 010°12'113.7
2018-Feb-14 03:28N 38°39' W 010°12'1613.5
2018-Feb-14 02:15N 38°56' W 010°12'313.4
2018-Feb-14 02:00N 38°59' W 010°12'713.5
2018-Feb-14 01:30N 39°06' W 010°12'  
2018-Feb-11 13:13N 49°50' W 003°27'311.7
2018-Feb-11 13:00N 49°51' W 003°23'612.0
2018-Feb-11 12:30N 49°55' W 003°16'612.1
2018-Feb-11 12:00N 49°57' W 003°07'612.5
2018-Feb-11 11:30N 49°60' W 002°59'612.8
2018-Feb-11 11:00N 50°02' W 002°49'  
Track history (hours):
 
Tides and Currents Weather Stations Pressure Air Temp Water Temp Dewpoint Dewpoint Depression Visibility Wind Speed Wind Dir Waves Ship Positions

Oriental Acacia

Last reported at 2018-Feb-21 10:51 UTC. Time now 2018-Feb-23 10:56 UTC.
Position N 40°43' E 029°19'.

Length 124 m; draft 7.6 m.

Type: Ship (hazmat cat B). MMSI: 319014800.

Date/timePositionNaut miles runAvg speedWind from/ knotsBaromVisibWave heightAir tempDewpointWater temp
2018-Feb-21 10:51N 40°43' E 029°19'412.4
2018-Feb-21 10:30N 40°43' E 029°13'713.0
2018-Feb-21 10:00N 40°43' E 029°05'  
2018-Feb-18 17:25N 36°21' E 014°44'613.9
2018-Feb-18 17:00N 36°23' E 014°37'714.0
2018-Feb-18 16:30N 36°25' E 014°29'714.0
2018-Feb-18 16:00N 36°27' E 014°21'713.7
2018-Feb-18 15:30N 36°30' E 014°13'713.6
2018-Feb-18 14:58N 36°32' E 014°04'  
2018-Feb-15 20:00N 35°60' W 005°11'714.6
2018-Feb-15 19:30N 35°58' W 005°20'815.1
2018-Feb-15 19:00N 35°57' W 005°29'250 6.8
2018-Feb-14 06:16N 38°01' W 010°01'413.8
2018-Feb-14 06:00N 38°05' W 010°02'3514.0
2018-Feb-14 03:31N 38°39' W 010°12'113.7
2018-Feb-14 03:28N 38°39' W 010°12'1613.5
2018-Feb-14 02:15N 38°56' W 010°12'313.4
2018-Feb-14 02:00N 38°59' W 010°12'713.5
2018-Feb-14 01:30N 39°06' W 010°12'  
2018-Feb-11 13:13N 49°50' W 003°27'311.7
2018-Feb-11 13:00N 49°51' W 003°23'612.0
2018-Feb-11 12:30N 49°55' W 003°16'612.1
2018-Feb-11 12:00N 49°57' W 003°07'612.5
2018-Feb-11 11:30N 49°60' W 002°59'612.8
2018-Feb-11 11:00N 50°02' W 002°49'  

Dump ship's entire track history